TimeMST,TemperatureF,Dew PointF,Humidity,Sea Level PressureIn,VisibilityMPH,Wind Direction,Wind SpeedMPH,Gust SpeedMPH,PrecipitationIn,Events,Conditions,WindDirDegrees,DateUTC
12:53 AM,28.0,21.0,75,30.30,10.0,Calm,Calm,-,N/A,,Clear,0,2012-11-15 07:53:00
1:53 AM,27.0,19.9,75,30.31,10.0,West,4.6,-,N/A,,Clear,270,2012-11-15 08:53:00
2:53 AM,27.0,19.9,75,30.32,10.0,West,4.6,-,N/A,,Clear,280,2012-11-15 09:53:00
3:53 AM,27.0,19.9,75,30.31,10.0,West,4.6,-,N/A,,Clear,270,2012-11-15 10:53:00
4:53 AM,24.1,18.0,77,30.35,10.0,Calm,Calm,-,N/A,,Clear,0,2012-11-15 11:53:00
5:53 AM,21.9,17.1,82,30.40,10.0,Calm,Calm,-,N/A,,Clear,0,2012-11-15 12:53:00
6:53 AM,23.0,18.0,81,30.41,10.0,Calm,Calm,-,N/A,,Clear,0,2012-11-15 13:53:00
7:53 AM,25.0,19.0,78,30.43,10.0,Calm,Calm,-,N/A,,Clear,0,2012-11-15 14:53:00
8:53 AM,34.0,21.9,61,30.42,10.0,Calm,Calm,-,N/A,,Clear,0,2012-11-15 15:53:00
9:53 AM,37.0,21.9,54,30.41,10.0,Calm,Calm,-,N/A,,Clear,0,2012-11-15 16:53:00
10:53 AM,41.0,21.9,47,30.40,10.0,East,3.5,-,N/A,,Clear,80,2012-11-15 17:53:00
11:53 AM,43.0,21.9,43,30.37,10.0,Calm,Calm,-,N/A,,Clear,0,2012-11-15 18:53:00
12:53 PM,46.0,21.9,39,30.34,10.0,Calm,Calm,-,N/A,,Clear,0,2012-11-15 19:53:00
1:53 PM,48.0,21.0,34,30.32,10.0,East,3.5,-,N/A,,Clear,80,2012-11-15 20:53:00
2:53 PM,48.0,21.0,34,30.31,10.0,Calm,Calm,-,N/A,,Clear,0,2012-11-15 21:53:00
3:53 PM,48.0,21.0,34,30.31,10.0,Calm,Calm,-,N/A,,Clear,0,2012-11-15 22:53:00
4:53 PM,46.0,19.0,34,30.32,10.0,Calm,Calm,-,N/A,,Clear,0,2012-11-15 23:53:00
5:53 PM,36.0,21.0,55,30.37,10.0,West,5.8,-,N/A,,Clear,280,2012-11-16 00:53:00
6:53 PM,34.0,23.0,64,30.38,10.0,West,5.8,-,N/A,,Clear,280,2012-11-16 01:53:00
7:53 PM,33.1,21.9,64,30.39,10.0,WNW,3.5,-,N/A,,Clear,290,2012-11-16 02:53:00
8:53 PM,30.9,21.9,69,30.35,10.0,NW,4.6,-,N/A,,Clear,320,2012-11-16 03:53:00
9:53 PM,30.9,21.9,69,30.34,10.0,WNW,4.6,-,N/A,,Clear,290,2012-11-16 04:53:00
10:53 PM,28.9,21.0,72,30.32,10.0,WNW,4.6,-,N/A,,Clear,290,2012-11-16 05:53:00
11:53 PM,28.0,19.9,72,30.32,10.0,WNW,5.8,-,N/A,,Clear,300,2012-11-16 06:53:00